sensor_id;sensor_type;location;lat;lon;timestamp;P1;durP1;ratioP1;P2;durP2;ratioP2
66546;SDS011;53400;50.364;14.874;2023-07-13T00:02:17;8.35;;;5.10;;
66546;SDS011;53400;50.364;14.874;2023-07-13T00:04:43;7.53;;;5.28;;
66546;SDS011;53400;50.364;14.874;2023-07-13T00:07:10;6.72;;;5.30;;
66546;SDS011;53400;50.364;14.874;2023-07-13T00:09:37;7.00;;;4.75;;
66546;SDS011;53400;50.364;14.874;2023-07-13T00:12:04;7.53;;;5.07;;
66546;SDS011;53400;50.364;14.874;2023-07-13T00:14:32;7.05;;;4.88;;
66546;SDS011;53400;50.364;14.874;2023-07-13T00:16:59;7.68;;;4.97;;
66546;SDS011;53400;50.364;14.874;2023-07-13T00:19:26;7.63;;;5.65;;
66546;SDS011;53400;50.364;14.874;2023-07-13T00:21:52;8.77;;;5.20;;
66546;SDS011;53400;50.364;14.874;2023-07-13T00:24:21;7.32;;;5.15;;
66546;SDS011;53400;50.364;14.874;2023-07-13T00:26:51;6.82;;;4.65;;
66546;SDS011;53400;50.364;14.874;2023-07-13T00:29:17;7.45;;;4.90;;
66546;SDS011;53400;50.364;14.874;2023-07-13T00:31:43;7.45;;;5.18;;
66546;SDS011;53400;50.364;14.874;2023-07-13T00:34:10;6.85;;;5.47;;
66546;SDS011;53400;50.364;14.874;2023-07-13T00:36:36;7.10;;;5.20;;
66546;SDS011;53400;50.364;14.874;2023-07-13T00:39:01;7.25;;;5.07;;
66546;SDS011;53400;50.364;14.874;2023-07-13T00:41:29;8.05;;;4.90;;
66546;SDS011;53400;50.364;14.874;2023-07-13T00:43:58;7.95;;;5.88;;
66546;SDS011;53400;50.364;14.874;2023-07-13T00:46:25;6.95;;;5.40;;
66546;SDS011;53400;50.364;14.874;2023-07-13T00:48:54;7.88;;;5.30;;
66546;SDS011;53400;50.364;14.874;2023-07-13T00:51:24;7.93;;;4.93;;
66546;SDS011;53400;50.364;14.874;2023-07-13T00:53:54;7.13;;;5.45;;
66546;SDS011;53400;50.364;14.874;2023-07-13T00:56:24;8.48;;;5.40;;
66546;SDS011;53400;50.364;14.874;2023-07-13T00:58:50;8.73;;;5.80;;
66546;SDS011;53400;50.364;14.874;2023-07-13T01:01:19;8.13;;;5.57;;
66546;SDS011;53400;50.364;14.874;2023-07-13T01:03:45;7.57;;;5.90;;
66546;SDS011;53400;50.364;14.874;2023-07-13T01:06:12;8.07;;;5.72;;
66546;SDS011;53400;50.364;14.874;2023-07-13T01:08:39;9.32;;;6.25;;
66546;SDS011;53400;50.364;14.874;2023-07-13T01:11:05;8.65;;;5.90;;
66546;SDS011;53400;50.364;14.874;2023-07-13T01:13:33;8.10;;;5.18;;
66546;SDS011;53400;50.364;14.874;2023-07-13T01:16:01;8.02;;;5.30;;
66546;SDS011;53400;50.364;14.874;2023-07-13T01:18:32;7.28;;;5.00;;
66546;SDS011;53400;50.364;14.874;2023-07-13T01:21:02;7.45;;;5.78;;
66546;SDS011;53400;50.364;14.874;2023-07-13T01:23:30;7.60;;;5.28;;
66546;SDS011;53400;50.364;14.874;2023-07-13T01:25:57;7.38;;;5.40;;
66546;SDS011;53400;50.364;14.874;2023-07-13T01:28:25;6.45;;;5.10;;
66546;SDS011;53400;50.364;14.874;2023-07-13T01:30:53;7.32;;;5.30;;
66546;SDS011;53400;50.364;14.874;2023-07-13T01:33:21;6.68;;;5.05;;
66546;SDS011;53400;50.364;14.874;2023-07-13T01:35:48;7.63;;;5.57;;
66546;SDS011;53400;50.364;14.874;2023-07-13T01:38:17;7.63;;;5.80;;
66546;SDS011;53400;50.364;14.874;2023-07-13T01:40:45;10.10;;;5.30;;
66546;SDS011;53400;50.364;14.874;2023-07-13T01:43:11;7.13;;;5.15;;
66546;SDS011;53400;50.364;14.874;2023-07-13T01:45:38;9.18;;;6.32;;
66546;SDS011;53400;50.364;14.874;2023-07-13T01:48:04;7.70;;;5.35;;
66546;SDS011;53400;50.364;14.874;2023-07-13T01:50:32;7.85;;;5.60;;
66546;SDS011;53400;50.364;14.874;2023-07-13T01:52:58;8.13;;;5.20;;
66546;SDS011;53400;50.364;14.874;2023-07-13T01:55:27;7.38;;;5.22;;
66546;SDS011;53400;50.364;14.874;2023-07-13T01:57:54;7.80;;;5.03;;
66546;SDS011;53400;50.364;14.874;2023-07-13T02:00:21;7.28;;;5.10;;
66546;SDS011;53400;50.364;14.874;2023-07-13T02:02:47;7.43;;;4.95;;
66546;SDS011;53400;50.364;14.874;2023-07-13T02:05:13;7.53;;;5.22;;
66546;SDS011;53400;50.364;14.874;2023-07-13T02:07:40;7.65;;;4.80;;
66546;SDS011;53400;50.364;14.874;2023-07-13T02:10:07;6.90;;;4.63;;
66546;SDS011;53400;50.364;14.874;2023-07-13T02:12:36;6.95;;;4.35;;
66546;SDS011;53400;50.364;14.874;2023-07-13T02:15:03;6.68;;;4.63;;
66546;SDS011;53400;50.364;14.874;2023-07-13T02:17:30;7.85;;;4.20;;
66546;SDS011;53400;50.364;14.874;2023-07-13T02:19:57;7.55;;;4.53;;
66546;SDS011;53400;50.364;14.874;2023-07-13T02:22:23;7.78;;;4.03;;
66546;SDS011;53400;50.364;14.874;2023-07-13T02:24:50;5.63;;;3.80;;
66546;SDS011;53400;50.364;14.874;2023-07-13T02:27:16;7.20;;;4.00;;
66546;SDS011;53400;50.364;14.874;2023-07-13T02:29:44;6.63;;;4.38;;
66546;SDS011;53400;50.364;14.874;2023-07-13T02:32:13;7.75;;;4.40;;
66546;SDS011;53400;50.364;14.874;2023-07-13T02:34:40;6.47;;;4.13;;
66546;SDS011;53400;50.364;14.874;2023-07-13T02:37:06;7.80;;;4.13;;
66546;SDS011;53400;50.364;14.874;2023-07-13T02:39:33;7.38;;;3.88;;
66546;SDS011;53400;50.364;14.874;2023-07-13T02:41:59;7.85;;;4.15;;
66546;SDS011;53400;50.364;14.874;2023-07-13T02:44:27;6.20;;;3.78;;
66546;SDS011;53400;50.364;14.874;2023-07-13T02:46:56;6.07;;;4.25;;
66546;SDS011;53400;50.364;14.874;2023-07-13T02:49:23;8.38;;;3.90;;
66546;SDS011;53400;50.364;14.874;2023-07-13T02:51:49;7.32;;;3.65;;
66546;SDS011;53400;50.364;14.874;2023-07-13T02:54:15;6.45;;;3.58;;
66546;SDS011;53400;50.364;14.874;2023-07-13T02:56:42;6.68;;;3.85;;
66546;SDS011;53400;50.364;14.874;2023-07-13T02:59:09;6.03;;;3.60;;
66546;SDS011;53400;50.364;14.874;2023-07-13T03:01:36;5.63;;;3.17;;
66546;SDS011;53400;50.364;14.874;2023-07-13T03:04:04;6.47;;;3.60;;
66546;SDS011;53400;50.364;14.874;2023-07-13T03:06:30;6.35;;;3.20;;
66546;SDS011;53400;50.364;14.874;2023-07-13T03:08:57;6.70;;;3.53;;
66546;SDS011;53400;50.364;14.874;2023-07-13T03:11:23;8.32;;;3.17;;
66546;SDS011;53400;50.364;14.874;2023-07-13T03:13:50;6.53;;;3.25;;
66546;SDS011;53400;50.364;14.874;2023-07-13T03:16:17;6.18;;;3.50;;
66546;SDS011;53400;50.364;14.874;2023-07-13T03:18:43;7.13;;;3.10;;
66546;SDS011;53400;50.364;14.874;2023-07-13T03:21:13;7.60;;;3.45;;
66546;SDS011;53400;50.364;14.874;2023-07-13T03:23:40;5.75;;;3.38;;
66546;SDS011;53400;50.364;14.874;2023-07-13T03:26:08;6.90;;;3.35;;
66546;SDS011;53400;50.364;14.874;2023-07-13T03:28:35;6.35;;;3.53;;
66546;SDS011;53400;50.364;14.874;2023-07-13T03:31:02;7.38;;;3.15;;
66546;SDS011;53400;50.364;14.874;2023-07-13T03:33:30;6.43;;;3.30;;
66546;SDS011;53400;50.364;14.874;2023-07-13T03:35:56;6.07;;;3.50;;
66546;SDS011;53400;50.364;14.874;2023-07-13T03:38:25;7.35;;;3.50;;
66546;SDS011;53400;50.364;14.874;2023-07-13T03:40:54;7.68;;;3.60;;
66546;SDS011;53400;50.364;14.874;2023-07-13T03:43:20;6.43;;;3.55;;
66546;SDS011;53400;50.364;14.874;2023-07-13T03:45:46;5.70;;;3.08;;
66546;SDS011;53400;50.364;14.874;2023-07-13T03:48:14;5.63;;;3.25;;
66546;SDS011;53400;50.364;14.874;2023-07-13T03:50:40;6.60;;;3.50;;
66546;SDS011;53400;50.364;14.874;2023-07-13T03:53:07;5.65;;;3.25;;
66546;SDS011;53400;50.364;14.874;2023-07-13T03:55:34;5.53;;;3.15;;
66546;SDS011;53400;50.364;14.874;2023-07-13T03:58:22;6.03;;;3.35;;
66546;SDS011;53400;50.364;14.874;2023-07-13T04:00:51;6.03;;;3.50;;
66546;SDS011;53400;50.364;14.874;2023-07-13T04:03:18;7.43;;;3.70;;
66546;SDS011;53400;50.364;14.874;2023-07-13T04:05:44;5.45;;;3.25;;
66546;SDS011;53400;50.364;14.874;2023-07-13T04:08:12;5.90;;;3.25;;
66546;SDS011;53400;50.364;14.874;2023-07-13T04:10:40;6.28;;;3.30;;
66546;SDS011;53400;50.364;14.874;2023-07-13T04:13:06;6.63;;;2.88;;
66546;SDS011;53400;50.364;14.874;2023-07-13T04:15:33;5.80;;;3.20;;
66546;SDS011;53400;50.364;14.874;2023-07-13T04:17:59;5.43;;;2.85;;
66546;SDS011;53400;50.364;14.874;2023-07-13T04:20:25;5.53;;;3.20;;
66546;SDS011;53400;50.364;14.874;2023-07-13T04:22:51;7.88;;;3.33;;
66546;SDS011;53400;50.364;14.874;2023-07-13T04:25:21;6.85;;;3.50;;
66546;SDS011;53400;50.364;14.874;2023-07-13T04:27:50;5.60;;;3.15;;
66546;SDS011;53400;50.364;14.874;2023-07-13T04:30:15;6.15;;;3.50;;
66546;SDS011;53400;50.364;14.874;2023-07-13T04:32:42;6.35;;;3.47;;
66546;SDS011;53400;50.364;14.874;2023-07-13T04:35:08;7.30;;;3.88;;
66546;SDS011;53400;50.364;14.874;2023-07-13T04:37:35;7.57;;;4.20;;
66546;SDS011;53400;50.364;14.874;2023-07-13T04:40:01;8.45;;;4.03;;
66546;SDS011;53400;50.364;14.874;2023-07-13T04:42:29;9.15;;;4.50;;
66546;SDS011;53400;50.364;14.874;2023-07-13T04:44:56;5.55;;;3.95;;
66546;SDS011;53400;50.364;14.874;2023-07-13T04:47:23;7.28;;;4.70;;
66546;SDS011;53400;50.364;14.874;2023-07-13T04:49:49;9.10;;;4.72;;
66546;SDS011;53400;50.364;14.874;2023-07-13T04:52:15;7.70;;;4.68;;
66546;SDS011;53400;50.364;14.874;2023-07-13T04:54:41;9.50;;;5.05;;
66546;SDS011;53400;50.364;14.874;2023-07-13T04:57:07;6.95;;;5.03;;
66546;SDS011;53400;50.364;14.874;2023-07-13T04:59:33;10.95;;;5.15;;
66546;SDS011;53400;50.364;14.874;2023-07-13T05:02:01;8.68;;;5.35;;
66546;SDS011;53400;50.364;14.874;2023-07-13T05:04:28;7.40;;;5.00;;
66546;SDS011;53400;50.364;14.874;2023-07-13T05:06:54;7.60;;;5.15;;
66546;SDS011;53400;50.364;14.874;2023-07-13T05:09:21;9.07;;;5.53;;
66546;SDS011;53400;50.364;14.874;2023-07-13T05:11:47;7.68;;;5.07;;
66546;SDS011;53400;50.364;14.874;2023-07-13T05:14:13;7.80;;;5.50;;
66546;SDS011;53400;50.364;14.874;2023-07-13T05:16:42;7.90;;;5.30;;
66546;SDS011;53400;50.364;14.874;2023-07-13T05:19:09;9.57;;;5.68;;
66546;SDS011;53400;50.364;14.874;2023-07-13T05:21:36;8.32;;;5.55;;
66546;SDS011;53400;50.364;14.874;2023-07-13T05:24:02;7.70;;;5.85;;
66546;SDS011;53400;50.364;14.874;2023-07-13T05:26:29;9.55;;;6.07;;
66546;SDS011;53400;50.364;14.874;2023-07-13T05:28:56;8.48;;;5.35;;
66546;SDS011;53400;50.364;14.874;2023-07-13T05:31:22;8.65;;;5.72;;
66546;SDS011;53400;50.364;14.874;2023-07-13T05:33:49;12.98;;;5.88;;
66546;SDS011;53400;50.364;14.874;2023-07-13T05:36:17;7.25;;;5.20;;
66546;SDS011;53400;50.364;14.874;2023-07-13T05:38:43;7.30;;;5.35;;
66546;SDS011;53400;50.364;14.874;2023-07-13T05:41:09;8.98;;;5.32;;
66546;SDS011;53400;50.364;14.874;2023-07-13T05:43:35;9.05;;;6.25;;
66546;SDS011;53400;50.364;14.874;2023-07-13T05:46:02;7.63;;;5.45;;
66546;SDS011;53400;50.364;14.874;2023-07-13T05:48:28;8.13;;;5.43;;
66546;SDS011;53400;50.364;14.874;2023-07-13T05:50:55;8.15;;;5.68;;
66546;SDS011;53400;50.364;14.874;2023-07-13T05:53:22;8.40;;;5.90;;
66546;SDS011;53400;50.364;14.874;2023-07-13T05:55:51;8.30;;;5.38;;
66546;SDS011;53400;50.364;14.874;2023-07-13T05:58:21;6.68;;;4.65;;
66546;SDS011;53400;50.364;14.874;2023-07-13T06:00:47;6.80;;;4.40;;
66546;SDS011;53400;50.364;14.874;2023-07-13T06:03:14;8.07;;;4.40;;
66546;SDS011;53400;50.364;14.874;2023-07-13T06:05:41;6.97;;;4.47;;
66546;SDS011;53400;50.364;14.874;2023-07-13T06:08:10;8.07;;;4.65;;
66546;SDS011;53400;50.364;14.874;2023-07-13T06:10:37;7.43;;;4.50;;
66546;SDS011;53400;50.364;14.874;2023-07-13T06:13:03;7.82;;;4.65;;
66546;SDS011;53400;50.364;14.874;2023-07-13T06:15:30;7.13;;;4.32;;
66546;SDS011;53400;50.364;14.874;2023-07-13T06:17:56;6.03;;;4.03;;
66546;SDS011;53400;50.364;14.874;2023-07-13T06:20:23;7.55;;;4.20;;
66546;SDS011;53400;50.364;14.874;2023-07-13T06:22:49;6.38;;;3.58;;
66546;SDS011;53400;50.364;14.874;2023-07-13T06:25:15;6.50;;;3.90;;
66546;SDS011;53400;50.364;14.874;2023-07-13T06:27:43;6.50;;;3.67;;
66546;SDS011;53400;50.364;14.874;2023-07-13T06:30:10;6.68;;;3.70;;
66546;SDS011;53400;50.364;14.874;2023-07-13T06:32:36;6.03;;;3.42;;
66546;SDS011;53400;50.364;14.874;2023-07-13T06:35:03;5.50;;;3.70;;
66546;SDS011;53400;50.364;14.874;2023-07-13T06:37:30;7.05;;;3.55;;
66546;SDS011;53400;50.364;14.874;2023-07-13T06:39:57;5.47;;;3.28;;
66546;SDS011;53400;50.364;14.874;2023-07-13T06:42:23;6.32;;;3.17;;
66546;SDS011;53400;50.364;14.874;2023-07-13T06:44:51;5.75;;;3.78;;
66546;SDS011;53400;50.364;14.874;2023-07-13T06:47:17;6.93;;;3.22;;
66546;SDS011;53400;50.364;14.874;2023-07-13T06:49:44;5.80;;;3.03;;
66546;SDS011;53400;50.364;14.874;2023-07-13T06:52:10;6.30;;;3.05;;
66546;SDS011;53400;50.364;14.874;2023-07-13T06:54:36;6.05;;;3.30;;
66546;SDS011;53400;50.364;14.874;2023-07-13T06:57:03;7.47;;;3.28;;
66546;SDS011;53400;50.364;14.874;2023-07-13T06:59:30;6.28;;;3.50;;
66546;SDS011;53400;50.364;14.874;2023-07-13T07:01:57;4.93;;;2.80;;
66546;SDS011;53400;50.364;14.874;2023-07-13T07:04:24;5.50;;;3.00;;
66546;SDS011;53400;50.364;14.874;2023-07-13T07:06:50;6.78;;;3.05;;
66546;SDS011;53400;50.364;14.874;2023-07-13T07:09:16;7.20;;;3.00;;
66546;SDS011;53400;50.364;14.874;2023-07-13T07:11:42;6.53;;;2.72;;
66546;SDS011;53400;50.364;14.874;2023-07-13T07:14:08;5.05;;;2.55;;
66546;SDS011;53400;50.364;14.874;2023-07-13T07:16:35;4.15;;;2.67;;
66546;SDS011;53400;50.364;14.874;2023-07-13T07:19:04;4.75;;;2.70;;
66546;SDS011;53400;50.364;14.874;2023-07-13T07:21:30;6.20;;;2.85;;
66546;SDS011;53400;50.364;14.874;2023-07-13T07:23:57;5.00;;;2.53;;
66546;SDS011;53400;50.364;14.874;2023-07-13T07:26:25;5.05;;;2.88;;
66546;SDS011;53400;50.364;14.874;2023-07-13T07:28:51;4.43;;;2.53;;
66546;SDS011;53400;50.364;14.874;2023-07-13T07:31:17;5.25;;;3.08;;
66546;SDS011;53400;50.364;14.874;2023-07-13T07:33:44;4.70;;;2.95;;
66546;SDS011;53400;50.364;14.874;2023-07-13T07:36:11;4.28;;;2.65;;
66546;SDS011;53400;50.364;14.874;2023-07-13T07:38:37;4.85;;;2.90;;
66546;SDS011;53400;50.364;14.874;2023-07-13T07:41:03;5.05;;;2.88;;
66546;SDS011;53400;50.364;14.874;2023-07-13T07:43:30;4.38;;;2.50;;
66546;SDS011;53400;50.364;14.874;2023-07-13T07:45:57;5.13;;;2.60;;
66546;SDS011;53400;50.364;14.874;2023-07-13T07:48:23;5.18;;;3.05;;
66546;SDS011;53400;50.364;14.874;2023-07-13T07:50:49;4.95;;;2.90;;
66546;SDS011;53400;50.364;14.874;2023-07-13T07:53:17;5.75;;;3.10;;
66546;SDS011;53400;50.364;14.874;2023-07-13T07:55:42;6.22;;;3.05;;
66546;SDS011;53400;50.364;14.874;2023-07-13T07:58:09;6.82;;;3.90;;
66546;SDS011;53400;50.364;14.874;2023-07-13T08:00:34;5.68;;;3.40;;
66546;SDS011;53400;50.364;14.874;2023-07-13T08:03:01;5.72;;;3.78;;
66546;SDS011;53400;50.364;14.874;2023-07-13T08:05:27;5.97;;;3.80;;
66546;SDS011;53400;50.364;14.874;2023-07-13T08:07:54;5.72;;;3.00;;
66546;SDS011;53400;50.364;14.874;2023-07-13T08:10:21;4.88;;;3.00;;
66546;SDS011;53400;50.364;14.874;2023-07-13T08:12:48;5.93;;;3.08;;
66546;SDS011;53400;50.364;14.874;2023-07-13T08:15:14;6.68;;;2.92;;
66546;SDS011;53400;50.364;14.874;2023-07-13T08:17:42;5.18;;;2.90;;
66546;SDS011;53400;50.364;14.874;2023-07-13T08:20:08;5.40;;;2.78;;
66546;SDS011;53400;50.364;14.874;2023-07-13T08:22:37;5.03;;;2.90;;
66546;SDS011;53400;50.364;14.874;2023-07-13T08:25:03;5.20;;;2.42;;
66546;SDS011;53400;50.364;14.874;2023-07-13T08:27:33;14.38;;;3.10;;
66546;SDS011;53400;50.364;14.874;2023-07-13T08:30:00;4.40;;;2.50;;
66546;SDS011;53400;50.364;14.874;2023-07-13T08:32:26;4.85;;;2.30;;
66546;SDS011;53400;50.364;14.874;2023-07-13T08:34:52;5.13;;;2.60;;
66546;SDS011;53400;50.364;14.874;2023-07-13T08:37:19;5.40;;;2.50;;
66546;SDS011;53400;50.364;14.874;2023-07-13T08:39:45;4.93;;;2.50;;
66546;SDS011;53400;50.364;14.874;2023-07-13T08:42:15;5.32;;;3.00;;
66546;SDS011;53400;50.364;14.874;2023-07-13T08:44:54;5.07;;;2.83;;
66546;SDS011;53400;50.364;14.874;2023-07-13T08:47:26;4.72;;;2.88;;
66546;SDS011;53400;50.364;14.874;2023-07-13T08:49:56;6.40;;;2.67;;
66546;SDS011;53400;50.364;14.874;2023-07-13T08:52:26;5.90;;;3.20;;
66546;SDS011;53400;50.364;14.874;2023-07-13T08:54:56;5.38;;;2.92;;
66546;SDS011;53400;50.364;14.874;2023-07-13T08:57:30;5.70;;;2.85;;
66546;SDS011;53400;50.364;14.874;2023-07-13T09:00:00;4.95;;;3.00;;
66546;SDS011;53400;50.364;14.874;2023-07-13T09:02:26;6.75;;;3.30;;
66546;SDS011;53400;50.364;14.874;2023-07-13T09:04:59;6.75;;;3.60;;
66546;SDS011;53400;50.364;14.874;2023-07-13T09:07:31;5.10;;;3.10;;
66546;SDS011;53400;50.364;14.874;2023-07-13T09:10:09;5.22;;;2.92;;
66546;SDS011;53400;50.364;14.874;2023-07-13T09:12:45;5.47;;;3.22;;
66546;SDS011;53400;50.364;14.874;2023-07-13T09:15:27;5.78;;;3.10;;
66546;SDS011;53400;50.364;14.874;2023-07-13T09:17:57;5.18;;;3.15;;
66546;SDS011;53400;50.364;14.874;2023-07-13T09:20:29;4.78;;;2.60;;
66546;SDS011;53400;50.364;14.874;2023-07-13T09:22:58;5.88;;;2.85;;
66546;SDS011;53400;50.364;14.874;2023-07-13T09:25:28;5.43;;;3.08;;
66546;SDS011;53400;50.364;14.874;2023-07-13T09:27:58;5.40;;;2.72;;
66546;SDS011;53400;50.364;14.874;2023-07-13T09:30:32;5.43;;;2.70;;
66546;SDS011;53400;50.364;14.874;2023-07-13T09:33:03;5.20;;;2.75;;
66546;SDS011;53400;50.364;14.874;2023-07-13T09:35:29;6.10;;;2.97;;
66546;SDS011;53400;50.364;14.874;2023-07-13T09:37:57;4.68;;;2.40;;
66546;SDS011;53400;50.364;14.874;2023-07-13T09:40:28;6.03;;;2.47;;
66546;SDS011;53400;50.364;14.874;2023-07-13T09:43:00;6.82;;;2.67;;
66546;SDS011;53400;50.364;14.874;2023-07-13T09:45:29;5.45;;;2.50;;
66546;SDS011;53400;50.364;14.874;2023-07-13T09:48:03;5.40;;;2.67;;
66546;SDS011;53400;50.364;14.874;2023-07-13T09:50:31;5.10;;;2.40;;
66546;SDS011;53400;50.364;14.874;2023-07-13T09:52:57;5.72;;;2.60;;
66546;SDS011;53400;50.364;14.874;2023-07-13T09:55:26;5.13;;;2.53;;
66546;SDS011;53400;50.364;14.874;2023-07-13T09:57:55;5.60;;;2.60;;
66546;SDS011;53400;50.364;14.874;2023-07-13T10:00:22;4.97;;;2.47;;
66546;SDS011;53400;50.364;14.874;2023-07-13T10:03:03;5.57;;;2.58;;
66546;SDS011;53400;50.364;14.874;2023-07-13T10:05:37;4.22;;;2.33;;
66546;SDS011;53400;50.364;14.874;2023-07-13T10:08:05;3.88;;;2.30;;
66546;SDS011;53400;50.364;14.874;2023-07-13T10:10:33;4.38;;;2.30;;
66546;SDS011;53400;50.364;14.874;2023-07-13T10:13:01;4.53;;;2.20;;
66546;SDS011;53400;50.364;14.874;2023-07-13T10:15:30;4.38;;;2.58;;
66546;SDS011;53400;50.364;14.874;2023-07-13T10:17:58;4.07;;;2.30;;
66546;SDS011;53400;50.364;14.874;2023-07-13T10:20:26;4.40;;;2.20;;
66546;SDS011;53400;50.364;14.874;2023-07-13T10:22:54;5.97;;;2.20;;
66546;SDS011;53400;50.364;14.874;2023-07-13T10:25:26;4.75;;;2.22;;
66546;SDS011;53400;50.364;14.874;2023-07-13T10:27:54;4.05;;;2.20;;
66546;SDS011;53400;50.364;14.874;2023-07-13T10:30:26;5.15;;;2.00;;
66546;SDS011;53400;50.364;14.874;2023-07-13T10:32:57;5.50;;;2.28;;
66546;SDS011;53400;50.364;14.874;2023-07-13T10:35:27;4.88;;;2.25;;
66546;SDS011;53400;50.364;14.874;2023-07-13T10:37:56;5.63;;;2.40;;
66546;SDS011;53400;50.364;14.874;2023-07-13T10:40:35;4.28;;;2.55;;
66546;SDS011;53400;50.364;14.874;2023-07-13T10:43:05;3.85;;;2.30;;
66546;SDS011;53400;50.364;14.874;2023-07-13T10:45:39;5.38;;;2.40;;
66546;SDS011;53400;50.364;14.874;2023-07-13T10:48:06;5.30;;;2.80;;
66546;SDS011;53400;50.364;14.874;2023-07-13T10:50:39;4.43;;;2.30;;
66546;SDS011;53400;50.364;14.874;2023-07-13T10:53:18;4.68;;;2.72;;
66546;SDS011;53400;50.364;14.874;2023-07-13T10:55:56;4.85;;;2.22;;
66546;SDS011;53400;50.364;14.874;2023-07-13T10:58:28;6.28;;;2.50;;
66546;SDS011;53400;50.364;14.874;2023-07-13T11:01:00;3.95;;;2.20;;
66546;SDS011;53400;50.364;14.874;2023-07-13T11:03:32;3.80;;;2.03;;
66546;SDS011;53400;50.364;14.874;2023-07-13T11:06:07;5.18;;;2.45;;
66546;SDS011;53400;50.364;14.874;2023-07-13T11:08:36;4.47;;;2.30;;
66546;SDS011;53400;50.364;14.874;2023-07-13T11:11:34;5.03;;;2.40;;
66546;SDS011;53400;50.364;14.874;2023-07-13T11:16:52;4.72;;;2.33;;
66546;SDS011;53400;50.364;14.874;2023-07-13T11:19:38;4.47;;;2.50;;
66546;SDS011;53400;50.364;14.874;2023-07-13T11:22:15;5.00;;;2.40;;
66546;SDS011;53400;50.364;14.874;2023-07-13T11:24:48;5.47;;;2.83;;
66546;SDS011;53400;50.364;14.874;2023-07-13T11:27:33;5.22;;;2.50;;
66546;SDS011;53400;50.364;14.874;2023-07-13T11:30:06;4.78;;;2.30;;
66546;SDS011;53400;50.364;14.874;2023-07-13T11:32:50;4.47;;;2.40;;
66546;SDS011;53400;50.364;14.874;2023-07-13T11:35:19;4.38;;;2.22;;
66546;SDS011;53400;50.364;14.874;2023-07-13T11:37:51;5.80;;;2.70;;
66546;SDS011;53400;50.364;14.874;2023-07-13T11:40:19;4.85;;;2.55;;
66546;SDS011;53400;50.364;14.874;2023-07-13T11:42:52;4.80;;;2.60;;
66546;SDS011;53400;50.364;14.874;2023-07-13T11:45:25;4.55;;;2.40;;
66546;SDS011;53400;50.364;14.874;2023-07-13T11:47:51;4.22;;;2.47;;
66546;SDS011;53400;50.364;14.874;2023-07-13T11:50:18;4.63;;;2.40;;
66546;SDS011;53400;50.364;14.874;2023-07-13T11:52:46;5.25;;;2.60;;
66546;SDS011;53400;50.364;14.874;2023-07-13T11:55:16;6.15;;;2.63;;
66546;SDS011;53400;50.364;14.874;2023-07-13T11:57:44;5.43;;;2.70;;
66546;SDS011;53400;50.364;14.874;2023-07-13T12:00:15;4.10;;;2.17;;
66546;SDS011;53400;50.364;14.874;2023-07-13T12:02:44;4.38;;;2.50;;
66546;SDS011;53400;50.364;14.874;2023-07-13T12:05:13;3.95;;;2.20;;
66546;SDS011;53400;50.364;14.874;2023-07-13T12:07:41;5.97;;;2.20;;
66546;SDS011;53400;50.364;14.874;2023-07-13T12:10:15;4.60;;;2.22;;
66546;SDS011;53400;50.364;14.874;2023-07-13T12:12:46;4.65;;;2.25;;
66546;SDS011;53400;50.364;14.874;2023-07-13T12:15:14;5.25;;;2.25;;
66546;SDS011;53400;50.364;14.874;2023-07-13T12:17:40;4.10;;;2.30;;
66546;SDS011;53400;50.364;14.874;2023-07-13T12:22:45;4.90;;;2.40;;
66546;SDS011;53400;50.364;14.874;2023-07-13T12:25:13;4.65;;;2.30;;
66546;SDS011;53400;50.364;14.874;2023-07-13T12:27:41;4.60;;;2.53;;
66546;SDS011;53400;50.364;14.874;2023-07-13T12:30:21;4.32;;;2.42;;
66546;SDS011;53400;50.364;14.874;2023-07-13T12:32:55;5.32;;;2.53;;
66546;SDS011;53400;50.364;14.874;2023-07-13T12:35:24;7.30;;;2.83;;
66546;SDS011;53400;50.364;14.874;2023-07-13T12:37:52;6.03;;;3.13;;
66546;SDS011;53400;50.364;14.874;2023-07-13T12:40:20;4.82;;;2.63;;
66546;SDS011;53400;50.364;14.874;2023-07-13T12:42:51;5.07;;;2.50;;
66546;SDS011;53400;50.364;14.874;2023-07-13T12:45:19;4.05;;;2.40;;
66546;SDS011;53400;50.364;14.874;2023-07-13T12:47:48;4.85;;;2.55;;
66546;SDS011;53400;50.364;14.874;2023-07-13T12:50:16;4.95;;;2.58;;
66546;SDS011;53400;50.364;14.874;2023-07-13T12:52:44;4.60;;;2.30;;
66546;SDS011;53400;50.364;14.874;2023-07-13T12:55:17;5.38;;;2.58;;
66546;SDS011;53400;50.364;14.874;2023-07-13T12:57:47;4.25;;;2.20;;
66546;SDS011;53400;50.364;14.874;2023-07-13T13:00:23;4.82;;;2.78;;
66546;SDS011;53400;50.364;14.874;2023-07-13T13:02:50;4.93;;;2.50;;
66546;SDS011;53400;50.364;14.874;2023-07-13T13:05:18;5.32;;;2.60;;
66546;SDS011;53400;50.364;14.874;2023-07-13T13:07:48;4.80;;;2.50;;
66546;SDS011;53400;50.364;14.874;2023-07-13T13:10:15;4.53;;;1.90;;
66546;SDS011;53400;50.364;14.874;2023-07-13T13:12:41;3.78;;;1.85;;
66546;SDS011;53400;50.364;14.874;2023-07-13T13:15:10;4.22;;;1.80;;
66546;SDS011;53400;50.364;14.874;2023-07-13T13:17:38;3.58;;;1.90;;
66546;SDS011;53400;50.364;14.874;2023-07-13T13:20:11;4.20;;;1.63;;
66546;SDS011;53400;50.364;14.874;2023-07-13T13:22:41;4.75;;;2.00;;
66546;SDS011;53400;50.364;14.874;2023-07-13T13:25:09;3.42;;;1.70;;
66546;SDS011;53400;50.364;14.874;2023-07-13T13:27:36;4.45;;;1.70;;
66546;SDS011;53400;50.364;14.874;2023-07-13T13:30:05;3.53;;;1.63;;
66546;SDS011;53400;50.364;14.874;2023-07-13T13:32:35;4.45;;;1.85;;
66546;SDS011;53400;50.364;14.874;2023-07-13T13:35:04;5.00;;;2.10;;
66546;SDS011;53400;50.364;14.874;2023-07-13T13:37:31;5.20;;;1.90;;
66546;SDS011;53400;50.364;14.874;2023-07-13T13:39:58;5.00;;;2.00;;
66546;SDS011;53400;50.364;14.874;2023-07-13T13:42:24;5.10;;;2.03;;
66546;SDS011;53400;50.364;14.874;2023-07-13T13:44:52;5.75;;;1.77;;
66546;SDS011;53400;50.364;14.874;2023-07-13T13:47:21;5.13;;;2.10;;
66546;SDS011;53400;50.364;14.874;2023-07-13T13:49:55;4.88;;;1.92;;
66546;SDS011;53400;50.364;14.874;2023-07-13T13:52:23;3.92;;;1.70;;
66546;SDS011;53400;50.364;14.874;2023-07-13T13:54:50;5.65;;;1.95;;
66546;SDS011;53400;50.364;14.874;2023-07-13T13:57:21;4.38;;;2.00;;
66546;SDS011;53400;50.364;14.874;2023-07-13T13:59:49;5.50;;;2.10;;
66546;SDS011;53400;50.364;14.874;2023-07-13T14:02:19;4.65;;;2.22;;
66546;SDS011;53400;50.364;14.874;2023-07-13T14:04:50;4.70;;;2.10;;
66546;SDS011;53400;50.364;14.874;2023-07-13T14:07:20;4.38;;;1.95;;
66546;SDS011;53400;50.364;14.874;2023-07-13T14:09:48;4.97;;;2.17;;
66546;SDS011;53400;50.364;14.874;2023-07-13T14:12:14;5.15;;;2.05;;
66546;SDS011;53400;50.364;14.874;2023-07-13T14:14:41;4.68;;;2.15;;
66546;SDS011;53400;50.364;14.874;2023-07-13T14:17:09;3.67;;;2.10;;
66546;SDS011;53400;50.364;14.874;2023-07-13T14:19:47;3.97;;;2.10;;
66546;SDS011;53400;50.364;14.874;2023-07-13T14:22:16;4.38;;;2.35;;
66546;SDS011;53400;50.364;14.874;2023-07-13T14:24:43;3.97;;;1.98;;
66546;SDS011;53400;50.364;14.874;2023-07-13T14:27:11;5.75;;;2.33;;
66546;SDS011;53400;50.364;14.874;2023-07-13T14:29:38;4.78;;;2.30;;
66546;SDS011;53400;50.364;14.874;2023-07-13T14:32:07;4.30;;;2.17;;
66546;SDS011;53400;50.364;14.874;2023-07-13T14:34:36;6.93;;;2.38;;
66546;SDS011;53400;50.364;14.874;2023-07-13T14:37:02;3.95;;;2.38;;
66546;SDS011;53400;50.364;14.874;2023-07-13T14:39:31;4.80;;;2.40;;
66546;SDS011;53400;50.364;14.874;2023-07-13T14:41:58;4.35;;;2.42;;
66546;SDS011;53400;50.364;14.874;2023-07-13T14:44:27;5.50;;;2.45;;
66546;SDS011;53400;50.364;14.874;2023-07-13T14:46:55;5.75;;;2.40;;